WZZ1628 EGGW-EYVI
Flight info
| Callsign | WZZ1628 |
|---|---|
| Flight time | N/A |
| Altitude | 35000 |
| Route | MATCH Q295 SOMVA DCT MAVAS DCT PARYD DCT LUWIL/N0454F370 DCT BINKA DCT OTRIV DCT BOKSU DCT IRKAL |
| Aircraft | A321/M-SDE3FGHIRWY/LB1 |
Departure
| Time | N/A |
|---|---|
| Airport | London Luton Airport (EGGW) |
Arrival
| Time | 2026-04-28 17:53 |
|---|---|
| Airport | Vilnius International Airport (EYVI) |
| Time | Latitude | Longitude | Altitude | Speed | Heading |
|---|---|---|---|---|---|
| 2026-04-28 16:56 | 53.82966 | 14.65749 | 37327 ft | 451 kts | 78° |
| 2026-04-28 16:57 | 53.83367 | 14.71042 | 37341 ft | 451 kts | 78° |
| 2026-04-28 16:57 | 53.84155 | 14.81498 | 37338 ft | 452 kts | 78° |
| 2026-04-28 16:58 | 53.84942 | 14.92076 | 37323 ft | 453 kts | 78° |
| 2026-04-28 16:58 | 53.85718 | 15.02636 | 37318 ft | 455 kts | 78° |
| 2026-04-28 16:59 | 53.86491 | 15.13315 | 37323 ft | 454 kts | 78° |
| 2026-04-28 16:59 | 53.87247 | 15.23889 | 37321 ft | 454 kts | 78° |
| 2026-04-28 17:00 | 53.88000 | 15.34540 | 37311 ft | 454 kts | 78° |
| 2026-04-28 17:00 | 53.88743 | 15.45182 | 37303 ft | 455 kts | 78° |
| 2026-04-28 17:01 | 53.89476 | 15.55810 | 37307 ft | 456 kts | 78° |
| 2026-04-28 17:01 | 53.90205 | 15.66511 | 37311 ft | 456 kts | 79° |
| 2026-04-28 17:02 | 53.90917 | 15.77138 | 37311 ft | 456 kts | 78° |
| 2026-04-28 17:02 | 53.91620 | 15.87769 | 37306 ft | 456 kts | 78° |
| 2026-04-28 17:03 | 53.92660 | 16.03771 | 37310 ft | 456 kts | 78° |
| 2026-04-28 17:03 | 53.93344 | 16.14482 | 37311 ft | 456 kts | 78° |
| 2026-04-28 17:04 | 53.94350 | 16.30501 | 37301 ft | 457 kts | 78° |
| 2026-04-28 17:05 | 53.95341 | 16.46645 | 37300 ft | 458 kts | 78° |
| 2026-04-28 17:06 | 53.96305 | 16.62729 | 37295 ft | 458 kts | 78° |
| 2026-04-28 17:06 | 53.97252 | 16.78833 | 37299 ft | 458 kts | 79° |
| 2026-04-28 17:07 | 53.97871 | 16.89622 | 37302 ft | 458 kts | 79° |
| 2026-04-28 17:07 | 53.98479 | 17.00349 | 37302 ft | 459 kts | 79° |
| 2026-04-28 17:08 | 53.99078 | 17.11113 | 37299 ft | 459 kts | 79° |
| 2026-04-28 17:08 | 53.99673 | 17.21944 | 37295 ft | 460 kts | 79° |
| 2026-04-28 17:09 | 54.00254 | 17.32751 | 37286 ft | 460 kts | 79° |
| 2026-04-28 17:09 | 54.00823 | 17.43504 | 37281 ft | 460 kts | 79° |
| 2026-04-28 17:10 | 54.01387 | 17.54332 | 37302 ft | 460 kts | 79° |
| 2026-04-28 17:10 | 54.01939 | 17.65117 | 37310 ft | 461 kts | 80° |
| 2026-04-28 17:11 | 54.02484 | 17.75963 | 37302 ft | 461 kts | 80° |
| 2026-04-28 17:11 | 54.03021 | 17.86848 | 37293 ft | 461 kts | 80° |
| 2026-04-28 17:12 | 54.03545 | 17.97680 | 37281 ft | 463 kts | 80° |
| 2026-04-28 17:12 | 54.04064 | 18.08580 | 37284 ft | 464 kts | 80° |
| 2026-04-28 17:13 | 54.04572 | 18.19490 | 37292 ft | 465 kts | 80° |
| 2026-04-28 17:13 | 54.05073 | 18.30470 | 37303 ft | 466 kts | 80° |
| 2026-04-28 17:14 | 54.05566 | 18.41478 | 37299 ft | 466 kts | 80° |
| 2026-04-28 17:14 | 54.06044 | 18.52401 | 37284 ft | 466 kts | 80° |
| 2026-04-28 17:15 | 54.06515 | 18.63415 | 37277 ft | 467 kts | 80° |
| 2026-04-28 17:15 | 54.06977 | 18.74374 | 37291 ft | 468 kts | 81° |
| 2026-04-28 17:16 | 54.07432 | 18.85450 | 37300 ft | 468 kts | 81° |
| 2026-04-28 17:16 | 54.07872 | 18.96453 | 37304 ft | 469 kts | 81° |
| 2026-04-28 17:17 | 54.08308 | 19.07520 | 37294 ft | 470 kts | 81° |
| 2026-04-28 17:17 | 54.08730 | 19.18560 | 37297 ft | 469 kts | 81° |
| 2026-04-28 17:18 | 54.09144 | 19.29661 | 37296 ft | 469 kts | 81° |
| 2026-04-28 17:18 | 54.09547 | 19.40704 | 37297 ft | 469 kts | 81° |
| 2026-04-28 17:19 | 54.09936 | 19.51694 | 37301 ft | 469 kts | 81° |
| 2026-04-28 17:19 | 54.10321 | 19.62795 | 37308 ft | 470 kts | 81° |
| 2026-04-28 17:20 | 54.10632 | 19.72017 | 37283 ft | 470 kts | 82° |
| 2026-04-28 17:20 | 54.11060 | 19.84992 | 37279 ft | 471 kts | 82° |
| 2026-04-28 17:21 | 54.11411 | 19.96065 | 37295 ft | 470 kts | 82° |
| 2026-04-28 17:22 | 54.11923 | 20.12765 | 37298 ft | 470 kts | 82° |
| 2026-04-28 17:22 | 54.12250 | 20.23837 | 37291 ft | 471 kts | 82° |
| 2026-04-28 17:23 | 54.12723 | 20.40558 | 37282 ft | 470 kts | 82° |
| 2026-04-28 17:23 | 54.13025 | 20.51679 | 37278 ft | 471 kts | 82° |
| 2026-04-28 17:24 | 54.13319 | 20.62816 | 37294 ft | 471 kts | 82° |
| 2026-04-28 17:24 | 54.13602 | 20.73955 | 37279 ft | 472 kts | 83° |
| 2026-04-28 17:25 | 54.14008 | 20.90759 | 37287 ft | 472 kts | 83° |
| 2026-04-28 17:26 | 54.14263 | 21.01879 | 37270 ft | 472 kts | 83° |
| 2026-04-28 17:26 | 54.14511 | 21.13050 | 37273 ft | 472 kts | 83° |
| 2026-04-28 17:27 | 54.14748 | 21.24276 | 37288 ft | 472 kts | 83° |
| 2026-04-28 17:27 | 54.14973 | 21.35424 | 37293 ft | 473 kts | 83° |
| 2026-04-28 17:28 | 54.15190 | 21.46650 | 37283 ft | 473 kts | 83° |
| 2026-04-28 17:28 | 54.15496 | 21.63399 | 37266 ft | 473 kts | 83° |
| 2026-04-28 17:29 | 54.15688 | 21.74615 | 37266 ft | 473 kts | 84° |
| 2026-04-28 17:30 | 54.15957 | 21.91453 | 37262 ft | 473 kts | 84° |
| 2026-04-28 17:30 | 54.16202 | 22.08224 | 37256 ft | 472 kts | 84° |
| 2026-04-28 17:31 | 54.17325 | 22.24746 | 37239 ft | 467 kts | 74° |
| 2026-04-28 17:32 | 54.18959 | 22.35523 | 36110 ft | 472 kts | 69° |
| 2026-04-28 17:32 | 54.19889 | 22.40939 | 35328 ft | 474 kts | 69° |
| 2026-04-28 17:32 | 54.20815 | 22.46323 | 34554 ft | 476 kts | 68° |
| 2026-04-28 17:32 | 54.21742 | 22.51750 | 33768 ft | 478 kts | 68° |
| 2026-04-28 17:33 | 54.22655 | 22.57131 | 33053 ft | 479 kts | 68° |
| 2026-04-28 17:33 | 54.23576 | 22.62589 | 32342 ft | 481 kts | 68° |
| 2026-04-28 17:33 | 54.24495 | 22.68070 | 31805 ft | 478 kts | 69° |
| 2026-04-28 17:33 | 54.25101 | 22.71704 | 31432 ft | 476 kts | 69° |
| 2026-04-28 17:34 | 54.26300 | 22.78912 | 30634 ft | 477 kts | 69° |
| 2026-04-28 17:34 | 54.27216 | 22.84428 | 29903 ft | 480 kts | 69° |
| 2026-04-28 17:34 | 54.28126 | 22.89907 | 28990 ft | 487 kts | 69° |
| 2026-04-28 17:34 | 54.29042 | 22.95449 | 28117 ft | 490 kts | 69° |
| 2026-04-28 17:35 | 54.29952 | 23.01002 | 27276 ft | 484 kts | 69° |
| 2026-04-28 17:35 | 54.30838 | 23.06453 | 26210 ft | 473 kts | 69° |
| 2026-04-28 17:35 | 54.31683 | 23.11784 | 25230 ft | 465 kts | 70° |
| 2026-04-28 17:35 | 54.32516 | 23.17115 | 24512 ft | 458 kts | 70° |
| 2026-04-28 17:36 | 54.33323 | 23.22309 | 23881 ft | 450 kts | 70° |
| 2026-04-28 17:36 | 54.34122 | 23.27469 | 23291 ft | 443 kts | 70° |
| 2026-04-28 17:36 | 54.34904 | 23.32516 | 22727 ft | 436 kts | 70° |
| 2026-04-28 17:36 | 54.35670 | 23.37466 | 22188 ft | 429 kts | 70° |
| 2026-04-28 17:37 | 54.36420 | 23.42321 | 21659 ft | 422 kts | 70° |
| 2026-04-28 17:37 | 54.37168 | 23.47185 | 21108 ft | 417 kts | 70° |
| 2026-04-28 17:37 | 54.37900 | 23.51947 | 20574 ft | 412 kts | 70° |
| 2026-04-28 17:37 | 54.38615 | 23.56624 | 20043 ft | 407 kts | 70° |
| 2026-04-28 17:38 | 54.39327 | 23.61287 | 19517 ft | 402 kts | 71° |
| 2026-04-28 17:38 | 54.40037 | 23.65954 | 18980 ft | 398 kts | 71° |
| 2026-04-28 17:38 | 54.40728 | 23.70505 | 18446 ft | 394 kts | 72° |
| 2026-04-28 17:38 | 54.41409 | 23.75015 | 17919 ft | 391 kts | 72° |
| 2026-04-28 17:39 | 54.42085 | 23.79501 | 17385 ft | 387 kts | 72° |
| 2026-04-28 17:39 | 54.42758 | 23.83976 | 16850 ft | 384 kts | 72° |
| 2026-04-28 17:39 | 54.44075 | 23.92760 | 15800 ft | 377 kts | 72° |
| 2026-04-28 17:40 | 54.44713 | 23.97037 | 15282 ft | 374 kts | 72° |
| 2026-04-28 17:40 | 54.45354 | 24.01339 | 14764 ft | 371 kts | 72° |
| 2026-04-28 17:40 | 54.45991 | 24.05629 | 14224 ft | 368 kts | 72° |
| 2026-04-28 17:40 | 54.46622 | 24.09892 | 13692 ft | 366 kts | 72° |
| 2026-04-28 17:41 | 54.47240 | 24.14090 | 13145 ft | 364 kts | 72° |
| 2026-04-28 17:41 | 54.47854 | 24.18269 | 12598 ft | 362 kts | 72° |
| 2026-04-28 17:41 | 54.48477 | 24.22512 | 12042 ft | 361 kts | 72° |
| 2026-04-28 17:41 | 54.49086 | 24.26670 | 11501 ft | 359 kts | 72° |
| 2026-04-28 17:42 | 54.49683 | 24.30757 | 11176 ft | 350 kts | 72° |
| 2026-04-28 17:42 | 54.50071 | 24.33431 | 11038 ft | 342 kts | 72° |
| 2026-04-28 17:42 | 54.50820 | 24.38601 | 10789 ft | 326 kts | 72° |
| 2026-04-28 17:42 | 54.51364 | 24.42365 | 10604 ft | 316 kts | 72° |
| 2026-04-28 17:43 | 54.51883 | 24.45968 | 10435 ft | 306 kts | 72° |
| 2026-04-28 17:43 | 54.52381 | 24.49433 | 10282 ft | 296 kts | 72° |
| 2026-04-28 17:43 | 54.52803 | 24.52863 | 10066 ft | 288 kts | 81° |
| 2026-04-28 17:43 | 54.52641 | 24.56285 | 9533 ft | 286 kts | 97° |
| 2026-04-28 17:44 | 54.52205 | 24.59569 | 8886 ft | 285 kts | 99° |
| 2026-04-28 17:44 | 54.51743 | 24.62910 | 8267 ft | 286 kts | 98° |
| 2026-04-28 17:44 | 54.51320 | 24.66210 | 7911 ft | 283 kts | 98° |
| 2026-04-28 17:44 | 54.50928 | 24.69492 | 7572 ft | 280 kts | 97° |
| 2026-04-28 17:45 | 54.50560 | 24.72766 | 7234 ft | 279 kts | 96° |
| 2026-04-28 17:45 | 54.50204 | 24.76049 | 6901 ft | 277 kts | 96° |
| 2026-04-28 17:45 | 54.49854 | 24.79313 | 6567 ft | 275 kts | 96° |
| 2026-04-28 17:45 | 54.49511 | 24.82518 | 6219 ft | 274 kts | 96° |
| 2026-04-28 17:46 | 54.49165 | 24.85733 | 5874 ft | 273 kts | 96° |
| 2026-04-28 17:46 | 54.48822 | 24.88927 | 5582 ft | 270 kts | 96° |
| 2026-04-28 17:46 | 54.48480 | 24.92082 | 5213 ft | 265 kts | 96° |
| 2026-04-28 17:46 | 54.48145 | 24.95175 | 4834 ft | 261 kts | 95° |
| 2026-04-28 17:47 | 54.47812 | 24.98229 | 4459 ft | 256 kts | 95° |
| 2026-04-28 17:47 | 54.47488 | 25.01207 | 4156 ft | 252 kts | 95° |
| 2026-04-28 17:47 | 54.47166 | 25.04149 | 3901 ft | 248 kts | 95° |
| 2026-04-28 17:47 | 54.46954 | 25.06086 | 3651 ft | 246 kts | 95° |
| 2026-04-28 17:48 | 54.46539 | 25.09893 | 3400 ft | 240 kts | 95° |
| 2026-04-28 17:48 | 54.46236 | 25.12683 | 3217 ft | 235 kts | 92° |
| 2026-04-28 17:48 | 54.46377 | 25.15355 | 3016 ft | 219 kts | 60° |
| 2026-04-28 17:48 | 54.47276 | 25.17253 | 2955 ft | 197 kts | 30° |
| 2026-04-28 17:49 | 54.48441 | 25.18316 | 2976 ft | 186 kts | 18° |
| 2026-04-28 17:49 | 54.49637 | 25.19102 | 3044 ft | 180 kts | 16° |
| 2026-04-28 17:49 | 54.50768 | 25.19830 | 3057 ft | 165 kts | 17° |
| 2026-04-28 17:49 | 54.51815 | 25.20530 | 2872 ft | 158 kts | 17° |
| 2026-04-28 17:50 | 54.52823 | 25.21224 | 2660 ft | 153 kts | 17° |
| 2026-04-28 17:50 | 54.53777 | 25.21891 | 2435 ft | 142 kts | 16° |
| 2026-04-28 17:50 | 54.54674 | 25.22517 | 2269 ft | 137 kts | 16° |
| 2026-04-28 17:50 | 54.55559 | 25.23134 | 2090 ft | 136 kts | 15° |
| 2026-04-28 17:51 | 54.56432 | 25.23739 | 1910 ft | 136 kts | 15° |
| 2026-04-28 17:51 | 54.57310 | 25.24350 | 1722 ft | 135 kts | 15° |
| 2026-04-28 17:51 | 54.58189 | 25.24963 | 1524 ft | 135 kts | 15° |
| 2026-04-28 17:51 | 54.59071 | 25.25575 | 1330 ft | 134 kts | 16° |
| 2026-04-28 17:52 | 54.59941 | 25.26178 | 1140 ft | 134 kts | 16° |
| 2026-04-28 17:52 | 54.60806 | 25.26770 | 983 ft | 134 kts | 17° |
| 2026-04-28 17:52 | 54.62522 | 25.27968 | 591 ft | 132 kts | 18° |
| 2026-04-28 17:53 | 54.63305 | 25.28504 | 596 ft | 99 kts | 20° |
| 2026-04-28 17:53 | 54.63789 | 25.28837 | 621 ft | 49 kts | 21° |
| 2026-04-28 17:53 | 54.64028 | 25.29001 | 634 ft | 32 kts | 20° |
| 2026-04-28 17:53 | 54.64204 | 25.29117 | 637 ft | 23 kts | 21° |
| 2026-04-28 17:54 | 54.64339 | 25.29206 | 640 ft | 17 kts | 20° |
| 2026-04-28 17:54 | 54.64424 | 25.29254 | 640 ft | 11 kts | 4° |
| 2026-04-28 17:54 | 54.64460 | 25.29242 | 640 ft | 5 kts | 322° |
| 2026-04-28 17:54 | 54.64489 | 25.29162 | 640 ft | 9 kts | 296° |
| 2026-04-28 17:55 | 54.64518 | 25.29059 | 640 ft | 10 kts | 296° |
| 2026-04-28 17:55 | 54.64547 | 25.28960 | 640 ft | 5 kts | 297° |
| 2026-04-28 17:55 | 54.64560 | 25.28892 | 640 ft | 6 kts | 270° |
| 2026-04-28 17:55 | 54.64552 | 25.28803 | 639 ft | 8 kts | 258° |
| 2026-04-28 17:56 | 54.64541 | 25.28700 | 638 ft | 8 kts | 259° |
| 2026-04-28 17:56 | 54.64520 | 25.28607 | 636 ft | 10 kts | 243° |
| 2026-04-28 17:56 | 54.64504 | 25.28533 | 634 ft | 3 kts | 240° |
| 2026-04-28 17:56 | 54.64472 | 25.28517 | 634 ft | 6 kts | 177° |
| 2026-04-28 17:57 | 54.64454 | 25.28518 | 634 ft | 0 kts | 178° |